Time;durP1;ratioP1;P1;durP2;ratioP2;P2;SDS_P1;SDS_P2;PMS_P1;PMS_P2;Temp;Humidity;BMP_temperature;BMP_pressure;BME280_temperature;BME280_humidity;BME280_pressure;Samples;Min_cycle;Max_cycle;Signal;HPM_P1;HPM_P2
2023/08/31 00:02:25;;;;;;;8.00;3.70;;;;;;;16.63;100.00;99578.27;1467783;89;21434;-75
2023/08/31 00:04:53;;;;;;;14.27;4.83;;;;;;;16.61;100.00;99580.31;1462393;89;21589;-76
2023/08/31 00:07:21;;;;;;;11.13;4.40;;;;;;;16.63;100.00;99580.94;1468767;89;21390;-76
2023/08/31 00:09:48;;;;;;;6.80;5.07;;;;;;;16.63;100.00;99573.41;1467959;89;22432;-75
2023/08/31 00:12:14;;;;;;;5.63;3.80;;;;;;;16.64;100.00;99574.55;1465170;89;22262;-76
2023/08/31 00:14:40;;;;;;;9.07;4.20;;;;;;;16.63;100.00;99571.59;1456427;89;21529;-76
2023/08/31 00:17:06;;;;;;;6.60;3.60;;;;;;;16.63;100.00;99574.75;1456336;89;21382;-76
2023/08/31 00:19:32;;;;;;;10.83;3.90;;;;;;;16.60;100.00;99578.69;1459999;89;21501;-76
2023/08/31 00:21:58;;;;;;;23.30;4.73;;;;;;;16.60;100.00;99577.84;1470316;89;21500;-76
2023/08/31 00:24:29;;;;;;;6.47;3.83;;;;;;;16.60;100.00;99574.67;1461179;89;21463;-76
2023/08/31 00:26:54;;;;;;;10.30;4.20;;;;;;;16.62;100.00;99571.78;1455496;89;21514;-76
2023/08/31 00:29:20;;;;;;;7.43;3.93;;;;;;;16.60;100.00;99574.67;1469630;89;21324;-75
2023/08/31 00:31:48;;;;;;;12.93;4.03;;;;;;;16.59;100.00;99567.67;1466850;89;21589;-76
2023/08/31 00:34:14;;;;;;;9.50;4.03;;;;;;;16.57;100.00;99567.56;1464024;89;21376;-76
2023/08/31 00:36:41;;;;;;;6.50;4.40;;;;;;;16.57;100.00;99567.08;1468550;89;21463;-75
2023/08/31 00:39:10;;;;;;;7.17;4.07;;;;;;;16.58;100.00;99567.37;1461795;89;21434;-74
2023/08/31 00:41:35;;;;;;;25.00;4.93;;;;;;;16.55;100.00;99562.45;1458790;89;21404;-75
2023/08/31 00:44:02;;;;;;;14.07;5.27;;;;;;;16.54;100.00;99558.64;1457452;89;22424;-75
2023/08/31 00:46:29;;;;;;;18.93;4.17;;;;;;;16.52;100.00;99564.72;1457541;89;21353;-76
2023/08/31 00:48:56;;;;;;;8.40;4.33;;;;;;;16.46;100.00;99564.52;1469142;87;22314;-76
2023/08/31 00:51:22;;;;;;;11.87;4.90;;;;;;;16.44;100.00;99565.74;1460471;89;21600;-76
2023/08/31 00:53:53;;;;;;;14.43;5.97;;;;;;;16.40;100.00;99565.83;1464090;89;21426;-76
2023/08/31 00:56:17;;;;;;;22.83;6.83;;;;;;;16.36;100.00;99561.95;1456801;89;22344;-75
2023/08/31 00:58:43;;;;;;;8.67;4.80;;;;;;;16.30;100.00;99558.77;1462011;89;21441;-75
2023/08/31 01:01:27;;;;;;;16.70;6.00;;;;;;;16.23;100.00;99559.59;1462915;89;21382;-75
2023/08/31 01:04:00;;;;;;;11.00;4.37;;;;;;;16.17;100.00;99559.08;1464567;89;21440;-74
2023/08/31 01:07:14;;;;;;;19.17;6.00;;;;;;;16.08;100.00;99566.14;1434391;89;21470;-74
2023/08/31 01:09:57;;;;;;;11.30;4.50;;;;;;;16.00;100.00;99581.86;1467236;89;21346;-74
2023/08/31 01:12:30;;;;;;;8.50;4.37;;;;;;;15.97;100.00;99580.94;1434124;89;21485;-75
2023/08/31 01:15:09;;;;;;;15.93;4.97;;;;;;;15.95;100.00;99584.31;1457532;89;21397;-74
2023/08/31 01:17:50;;;;;;;20.53;4.60;;;;;;;15.97;100.00;99591.61;1469339;89;21522;-75
2023/08/31 01:20:21;;;;;;;12.33;5.25;;;;;;;15.99;100.00;99586.87;1465050;89;22218;-75
2023/08/31 01:22:58;;;;;;;8.07;4.73;;;;;;;15.99;100.00;99586.35;1460986;89;21464;-75
2023/08/31 01:25:25;;;;;;;12.37;4.27;;;;;;;15.99;100.00;99583.69;1433441;89;22328;-75
2023/08/31 01:27:52;;;;;;;9.03;4.73;;;;;;;16.03;100.00;99584.64;1461966;89;21530;-75
2023/08/31 01:30:18;;;;;;;8.93;5.30;;;;;;;16.01;100.00;99589.65;1465266;89;21442;-75
2023/08/31 01:32:45;;;;;;;10.00;4.73;;;;;;;16.01;100.00;99580.31;1474286;89;21574;-75
2023/08/31 01:35:12;;;;;;;7.80;5.00;;;;;;;16.01;100.00;99583.50;1459728;89;21442;-75
2023/08/31 01:37:56;;;;;;;20.07;7.00;;;;;;;16.01;100.00;99580.83;1466358;89;21633;-75
2023/08/31 01:40:40;;;;;;;10.77;5.17;;;;;;;16.01;100.00;99583.50;1464686;89;21493;-75
2023/08/31 01:43:08;;;;;;;11.50;5.00;;;;;;;16.02;100.00;99586.46;1468914;89;21597;-76
2023/08/31 01:45:37;;;;;;;12.80;5.00;;;;;;;16.02;100.00;99579.79;1467597;89;22255;-76
2023/08/31 01:48:05;;;;;;;13.23;5.50;;;;;;;16.05;100.00;99586.05;1458561;89;22233;-76
2023/08/31 01:50:32;;;;;;;12.07;6.47;;;;;;;16.05;100.00;99579.38;1462762;89;21537;-76
2023/08/31 01:52:58;;;;;;;11.93;5.93;;;;;;;16.08;100.00;99577.64;1438439;89;22292;-76
2023/08/31 01:55:25;;;;;;;12.50;6.10;;;;;;;16.10;100.00;99586.27;1468127;89;21382;-75
2023/08/31 01:57:51;;;;;;;10.00;5.00;;;;;;;16.10;100.00;99580.12;1469704;89;21655;-76
2023/08/31 02:00:19;;;;;;;16.23;6.13;;;;;;;16.09;100.00;99581.16;1461658;89;22358;-76
2023/08/31 02:02:45;;;;;;;9.80;5.30;;;;;;;16.05;100.00;99583.91;1454400;89;21396;-76
2023/08/31 02:05:11;;;;;;;7.73;5.87;;;;;;;16.05;100.00;99586.57;1452845;89;21411;-76
2023/08/31 02:07:38;;;;;;;9.47;5.60;;;;;;;16.04;100.00;99591.09;1467002;89;21448;-76
2023/08/31 02:10:06;;;;;;;15.73;5.70;;;;;;;16.02;100.00;99587.80;1461985;89;21441;-76
2023/08/31 02:12:33;;;;;;;19.63;6.37;;;;;;;16.00;100.00;99594.69;1466073;89;22431;-75
2023/08/31 02:15:00;;;;;;;18.70;5.27;;;;;;;15.99;100.00;99594.88;1469540;89;21463;-76
2023/08/31 02:17:26;;;;;;;9.13;5.43;;;;;;;15.96;100.00;99599.28;1466163;89;21442;-75
2023/08/31 02:19:53;;;;;;;10.43;5.73;;;;;;;15.96;100.00;99599.28;1434699;89;21566;-75
2023/08/31 02:22:20;;;;;;;14.60;6.23;;;;;;;15.95;100.00;99600.33;1462353;89;21352;-76
2023/08/31 02:24:46;;;;;;;12.97;6.03;;;;;;;15.92;100.00;99600.73;1460401;89;22300;-76
2023/08/31 02:27:12;;;;;;;12.77;5.17;;;;;;;15.89;100.00;99607.80;1459354;89;22352;-76
2023/08/31 02:29:39;;;;;;;21.37;6.77;;;;;;;15.88;100.00;99619.00;1468874;89;22362;-76
2023/08/31 02:32:06;;;;;;;9.03;6.67;;;;;;;15.88;100.00;99613.66;1460112;89;21382;-76
2023/08/31 02:34:32;;;;;;;16.47;6.73;;;;;;;15.88;100.00;99612.33;1454728;89;21359;-75
2023/08/31 02:36:58;;;;;;;13.53;5.67;;;;;;;15.88;100.00;99609.66;1461616;89;21574;-75
2023/08/31 02:39:24;;;;;;;14.93;7.63;;;;;;;15.89;100.00;99615.81;1443584;89;22336;-76
2023/08/31 02:41:51;;;;;;;14.43;5.53;;;;;;;15.87;100.00;99619.19;1468488;89;21441;-76
2023/08/31 02:44:18;;;;;;;14.17;5.63;;;;;;;15.85;100.00;99622.04;1469844;89;21530;-75
2023/08/31 02:46:44;;;;;;;17.70;5.93;;;;;;;15.82;100.00;99622.45;1457339;89;21463;-76
2023/08/31 02:49:10;;;;;;;15.37;5.97;;;;;;;15.81;100.00;99617.33;1459221;89;22540;-75
2023/08/31 02:51:36;;;;;;;9.17;5.73;;;;;;;15.79;100.00;99623.70;1442470;89;21581;-77
2023/08/31 02:54:03;;;;;;;12.57;5.43;;;;;;;15.77;100.00;99628.92;1457570;89;21324;-76
2023/08/31 02:56:30;;;;;;;14.60;6.87;;;;;;;15.75;100.00;99628.29;1462389;89;22269;-76
2023/08/31 02:58:56;;;;;;;23.67;6.50;;;;;;;15.73;100.00;99631.14;1467195;89;22410;-77
2023/08/31 03:01:24;;;;;;;5.80;5.20;;;;;;;15.73;100.00;99633.81;1456790;89;21404;-76
2023/08/31 03:03:50;;;;;;;10.93;6.43;;;;;;;15.75;100.00;99637.11;1466018;89;21302;-76
2023/08/31 03:06:17;;;;;;;14.17;6.53;;;;;;;15.77;100.00;99641.73;1465424;89;21519;-77
2023/08/31 03:08:43;;;;;;;8.47;5.20;;;;;;;15.73;100.00;99641.81;1462858;89;21427;-76
2023/08/31 03:11:09;;;;;;;10.93;6.70;;;;;;;15.70;100.00;99640.88;1460375;89;22377;-77
2023/08/31 03:13:35;;;;;;;12.97;6.40;;;;;;;15.68;100.00;99642.09;1463157;89;21405;-76
2023/08/31 03:16:02;;;;;;;7.90;5.43;;;;;;;15.66;100.00;99642.28;1473943;89;21516;-76
2023/08/31 03:18:29;;;;;;;17.03;6.67;;;;;;;15.66;100.00;99640.95;1468403;89;22323;-77
2023/08/31 03:20:56;;;;;;;8.37;5.77;;;;;;;15.68;100.00;99641.61;1469503;89;21429;-77
2023/08/31 03:23:22;;;;;;;12.30;5.90;;;;;;;15.66;100.00;99640.13;1458410;89;22446;-77
2023/08/31 03:25:48;;;;;;;15.17;6.93;;;;;;;15.64;100.00;99644.32;1470776;89;21390;-76
2023/08/31 03:28:14;;;;;;;12.43;6.63;;;;;;;15.64;100.00;99649.66;1465687;89;21926;-75
2023/08/31 03:30:41;;;;;;;12.30;5.73;;;;;;;15.68;100.00;99648.77;1469549;89;21511;-76
2023/08/31 03:33:08;;;;;;;14.80;6.90;;;;;;;15.72;100.00;99652.70;1454667;89;21317;-76
2023/08/31 03:35:34;;;;;;;11.47;6.60;;;;;;;15.75;100.00;99649.11;1462419;89;21494;-77
2023/08/31 03:38:00;;;;;;;10.90;5.90;;;;;;;15.79;100.00;99654.86;1469456;89;22285;-76
2023/08/31 03:40:26;;;;;;;12.17;5.27;;;;;;;15.84;100.00;99654.27;1462689;89;21301;-76
2023/08/31 03:42:53;;;;;;;15.97;6.30;;;;;;;15.87;100.00;99655.20;1466039;89;21519;-77
2023/08/31 03:45:20;;;;;;;12.23;6.63;;;;;;;15.90;100.00;99654.80;1468182;89;22226;-76
2023/08/31 03:47:47;;;;;;;19.73;8.73;;;;;;;15.87;100.00;99658.69;1459186;89;21337;-76
2023/08/31 03:50:13;;;;;;;10.70;7.00;;;;;;;15.84;100.00;99657.77;1470584;89;21441;-77
2023/08/31 03:52:40;;;;;;;12.27;5.87;;;;;;;15.78;100.00;99656.72;1466819;89;21448;-76
2023/08/31 03:55:07;;;;;;;10.27;6.47;;;;;;;15.76;100.00;99668.61;1466991;89;21567;-76
2023/08/31 03:57:33;;;;;;;15.03;8.03;;;;;;;15.73;100.00;99669.83;1464451;89;21411;-75
2023/08/31 03:59:59;;;;;;;12.13;6.33;;;;;;;15.68;100.00;99667.44;1465800;89;22343;-75
2023/08/31 04:02:25;;;;;;;10.97;6.27;;;;;;;15.67;100.00;99670.59;1466417;89;21367;-75
2023/08/31 04:04:51;;;;;;;10.67;7.00;;;;;;;15.69;100.00;99672.59;1466019;89;21345;-76
2023/08/31 04:07:18;;;;;;;14.23;5.50;;;;;;;15.70;100.00;99675.56;1467107;89;21470;-75
2023/08/31 04:09:44;;;;;;;13.67;7.23;;;;;;;15.70;100.00;99675.56;1470599;89;22461;-75
2023/08/31 04:12:10;;;;;;;9.50;6.17;;;;;;;15.72;100.00;99684.20;1464941;89;21493;-76
2023/08/31 04:14:36;;;;;;;11.37;6.70;;;;;;;15.73;100.00;99682.34;1464309;89;21346;-77
2023/08/31 04:17:04;;;;;;;13.20;7.70;;;;;;;15.77;100.00;99692.43;1462720;89;21512;-76
2023/08/31 04:19:31;;;;;;;13.57;6.10;;;;;;;15.79;100.00;99689.55;1467777;89;21404;-77
2023/08/31 04:21:57;;;;;;;11.67;7.27;;;;;;;15.83;100.00;99695.33;1457057;89;22284;-76
2023/08/31 04:24:23;;;;;;;8.83;7.10;;;;;;;15.84;100.00;99692.45;1466804;89;21397;-76
2023/08/31 04:26:51;;;;;;;11.03;7.37;;;;;;;15.83;100.00;99687.33;1466046;89;21464;-76
2023/08/31 04:29:17;;;;;;;10.70;6.70;;;;;;;15.83;100.00;99692.66;1462712;89;21497;-76
2023/08/31 04:31:44;;;;;;;9.87;6.87;;;;;;;15.84;100.00;99701.78;1474117;89;21412;-76
2023/08/31 04:34:10;;;;;;;11.50;6.63;;;;;;;15.85;100.00;99703.94;1471423;89;21294;-78
2023/08/31 04:36:36;;;;;;;6.77;6.07;;;;;;;15.87;100.00;99702.72;1467830;89;21463;-76
2023/08/31 04:39:03;;;;;;;7.57;6.03;;;;;;;15.94;100.00;99706.25;1459684;89;21584;-77
2023/08/31 04:41:29;;;;;;;12.20;6.60;;;;;;;15.99;100.00;99708.30;1472494;89;21345;-77
2023/08/31 04:43:56;;;;;;;13.23;8.07;;;;;;;16.01;100.00;99710.27;1464038;89;22694;-77
2023/08/31 04:46:22;;;;;;;9.70;7.27;;;;;;;16.01;100.00;99703.59;1458297;89;21398;-77
2023/08/31 04:48:48;;;;;;;9.07;7.00;;;;;;;15.98;100.00;99708.00;1466471;89;21338;-77
2023/08/31 04:51:41;;;;;;;10.97;7.90;;;;;;;15.98;100.00;99714.67;1471826;89;21646;-77
2023/08/31 04:54:08;;;;;;;12.57;7.00;;;;;;;15.99;100.00;99713.64;1466831;89;21426;-77
2023/08/31 04:56:34;;;;;;;9.90;7.70;;;;;;;15.98;100.00;99717.34;1421272;89;22366;-77
2023/08/31 04:59:02;;;;;;;10.70;6.37;;;;;;;15.99;100.00;99720.31;1458436;89;22262;-77
2023/08/31 05:01:29;;;;;;;15.87;7.27;;;;;;;15.99;100.00;99722.98;1466063;89;21527;-77
2023/08/31 05:03:55;;;;;;;7.63;6.83;;;;;;;16.05;100.00;99724.02;1463759;89;21375;-77
2023/08/31 05:06:22;;;;;;;11.10;7.63;;;;;;;16.09;100.00;99722.62;1455587;89;22597;-77
2023/08/31 05:08:49;;;;;;;11.10;7.60;;;;;;;16.17;100.00;99729.94;1459282;89;21427;-77
2023/08/31 05:11:15;;;;;;;10.47;7.37;;;;;;;16.27;100.00;99726.05;1460505;89;22336;-77
2023/08/31 05:13:44;;;;;;;9.87;7.33;;;;;;;16.35;100.00;99725.35;1458941;89;21420;-77
2023/08/31 05:16:10;;;;;;;13.80;8.80;;;;;;;16.40;100.00;99730.06;1464396;89;21494;-77
2023/08/31 05:18:40;;;;;;;10.00;8.60;;;;;;;16.41;100.00;99738.41;1464556;89;21360;-77
2023/08/31 05:21:06;;;;;;;12.30;8.40;;;;;;;16.41;100.00;99738.41;1460173;89;21471;-76
2023/08/31 05:23:32;;;;;;;9.10;7.63;;;;;;;16.40;100.00;99745.61;1461896;89;21345;-76
2023/08/31 05:26:01;;;;;;;10.37;8.00;;;;;;;16.45;100.00;99741.79;1459197;89;21375;-76
2023/08/31 05:28:28;;;;;;;14.60;9.07;;;;;;;16.57;100.00;99744.72;1461846;89;21404;-75
2023/08/31 05:31:00;;;;;;;8.20;7.17;;;;;;;16.65;100.00;99741.82;1461576;89;22380;-75
2023/08/31 05:33:28;;;;;;;18.47;8.00;;;;;;;16.69;100.00;99739.08;1467153;89;22418;-75
2023/08/31 05:35:55;;;;;;;11.23;6.87;;;;;;;16.73;100.00;99745.34;1464052;89;21419;-75
2023/08/31 05:38:21;;;;;;;9.80;8.80;;;;;;;16.77;100.00;99747.93;1464394;89;22899;-75
2023/08/31 05:40:48;;;;;;;10.17;8.53;;;;;;;16.83;100.00;99749.30;1461131;89;21442;-75
2023/08/31 05:43:14;;;;;;;10.37;8.63;;;;;;;16.83;100.00;99752.45;1465429;89;21471;-75
2023/08/31 05:45:41;;;;;;;13.62;8.73;;;;;;;16.83;100.00;99747.95;1461962;89;21368;-76
2023/08/31 05:48:08;;;;;;;12.43;8.58;;;;;;;16.91;100.00;99754.93;1465387;89;21656;-75
2023/08/31 05:50:36;;;;;;;8.45;6.87;;;;;;;17.04;100.00;99749.59;1459493;89;21419;-77
2023/08/31 05:53:04;;;;;;;9.30;8.40;;;;;;;17.20;100.00;99750.20;1462626;89;21515;-78
2023/08/31 05:55:30;;;;;;;9.08;6.78;;;;;;;17.28;100.00;99748.65;1464606;89;21353;-77
2023/08/31 05:57:56;;;;;;;10.70;7.50;;;;;;;17.34;100.00;99745.14;1461776;89;22277;-77
2023/08/31 06:00:23;;;;;;;7.25;6.55;;;;;;;17.37;100.00;99743.38;1461351;89;21375;-76
2023/08/31 06:02:49;;;;;;;13.20;7.35;;;;;;;17.44;100.00;99744.73;1463126;89;21530;-76
2023/08/31 06:05:18;;;;;;;14.13;8.08;;;;;;;17.56;100.00;99747.88;1466639;89;21352;-76
2023/08/31 06:07:44;;;;;;;10.28;8.30;;;;;;;17.63;100.00;99750.52;1457524;89;21360;-78
2023/08/31 06:10:11;;;;;;;9.45;8.53;;;;;;;17.70;100.00;99751.34;1441583;89;22365;-78
2023/08/31 06:12:37;;;;;;;9.23;7.33;;;;;;;17.83;100.00;99758.52;1461478;89;22063;-77
2023/08/31 06:15:05;;;;;;;11.57;7.83;;;;;;;17.93;100.00;99765.61;1470656;89;21293;-78
2023/08/31 06:17:32;;;;;;;8.18;7.12;;;;;;;17.97;100.00;99768.67;1462763;89;21449;-77
2023/08/31 06:19:58;;;;;;;11.68;7.20;;;;;;;18.12;100.00;99772.42;1447228;89;21534;-76
2023/08/31 06:22:24;;;;;;;11.63;7.33;;;;;;;18.28;100.00;99775.96;1460923;89;22433;-76
2023/08/31 06:24:51;;;;;;;10.23;8.08;;;;;;;18.31;100.00;99772.85;1464525;89;21374;-75
2023/08/31 06:27:18;;;;;;;9.20;7.35;;;;;;;18.36;100.00;99777.06;1461767;89;21413;-76
2023/08/31 06:29:47;;;;;;;7.72;6.90;;;;;;;18.35;100.00;99787.45;1461909;89;21426;-76
2023/08/31 06:32:12;;;;;;;9.98;7.72;;;;;;;18.23;100.00;99787.83;1466086;89;21635;-76
2023/08/31 06:34:39;;;;;;;9.48;6.87;;;;;;;18.16;100.00;99799.09;1462031;89;21390;-76
2023/08/31 06:37:05;;;;;;;14.13;7.08;;;;;;;18.16;100.00;99801.78;1464358;89;22299;-75
2023/08/31 06:39:32;;;;;;;8.38;7.37;;;;;;;18.25;100.00;99800.50;1463812;89;21382;-74
2023/08/31 06:42:00;;;;;;;11.73;7.80;;;;;;;18.25;100.00;99804.52;1463660;89;21471;-75
2023/08/31 06:44:26;;;;;;;9.43;8.45;;;;;;;18.15;100.00;99805.47;1455473;89;21375;-75
2023/08/31 06:46:52;;;;;;;11.85;7.75;;;;;;;18.15;100.00;99813.50;1458297;89;21575;-76
2023/08/31 06:49:19;;;;;;;9.25;7.60;;;;;;;18.23;100.00;99815.95;1465859;89;22299;-75
2023/08/31 06:51:45;;;;;;;8.60;7.40;;;;;;;18.51;100.00;99817.48;1465519;89;21433;-76
2023/08/31 06:54:13;;;;;;;9.38;8.10;;;;;;;18.64;100.00;99814.70;1435426;89;22270;-75
2023/08/31 06:56:39;;;;;;;9.30;8.38;;;;;;;18.72;100.00;99818.48;1466326;89;21533;-75
2023/08/31 06:59:05;;;;;;;13.43;8.85;;;;;;;18.87;100.00;99829.77;1463987;89;21360;-74
2023/08/31 07:01:32;;;;;;;8.90;8.00;;;;;;;18.99;100.00;99831.73;1464253;89;21489;-76
2023/08/31 07:03:59;;;;;;;9.65;7.65;;;;;;;19.09;100.00;99828.06;1452351;89;21410;-75
2023/08/31 07:10:25;;;;;;;9.78;7.80;;;;;;;19.42;100.00;99832.33;1463427;89;21590;-76
2023/08/31 07:12:52;;;;;;;9.83;8.43;;;;;;;19.70;100.00;99835.40;1455988;89;22401;-77
2023/08/31 07:15:18;;;;;;;8.93;8.03;;;;;;;19.72;100.00;99837.35;1459009;89;21272;-76
2023/08/31 07:17:44;;;;;;;11.85;8.70;;;;;;;19.63;100.00;99851.26;1458041;89;21530;-80
2023/08/31 07:20:12;;;;;;;12.50;9.43;;;;;;;19.52;100.00;99844.74;1444747;89;21411;-81
2023/08/31 07:22:40;;;;;;;11.20;8.50;;;;;;;19.38;100.00;99846.71;1457053;89;21471;-78
2023/08/31 07:25:07;;;;;;;11.22;10.10;;;;;;;19.28;100.00;99848.56;1461027;89;21574;-80
2023/08/31 07:27:34;;;;;;;10.35;7.58;;;;;;;19.18;100.00;99843.38;1463334;89;21368;-79
2023/08/31 07:30:00;;;;;;;9.53;8.53;;;;;;;19.08;100.00;99851.91;1462450;89;21367;-80
2023/08/31 07:32:26;;;;;;;9.20;8.20;;;;;;;19.08;100.00;99855.94;1462767;89;22499;-80
2023/08/31 07:34:52;;;;;;;17.87;10.35;;;;;;;19.12;100.00;99859.28;1464353;89;21302;-80
2023/08/31 07:37:19;;;;;;;12.10;9.98;;;;;;;19.13;100.00;99862.30;1464988;89;21322;-80
2023/08/31 07:39:46;;;;;;;14.00;10.72;;;;;;;19.09;100.00;99861.59;1458783;89;21693;-79
2023/08/31 07:42:12;;;;;;;17.12;11.08;;;;;;;19.01;100.00;99864.53;1463966;89;22292;-78
2023/08/31 07:44:38;;;;;;;12.28;10.25;;;;;;;18.89;100.00;99867.89;1462082;89;21530;-79
2023/08/31 07:47:05;;;;;;;10.45;9.00;;;;;;;18.80;100.00;99862.49;1465255;89;21412;-78
2023/08/31 07:49:31;;;;;;;11.78;9.88;;;;;;;18.74;100.00;99869.23;1470001;89;22379;-76
2023/08/31 07:51:57;;;;;;;14.38;11.45;;;;;;;18.67;100.00;99867.88;1460366;89;21449;-79
2023/08/31 07:54:24;;;;;;;13.18;10.05;;;;;;;18.66;100.00;99871.08;1437030;89;21994;-77
2023/08/31 07:56:51;;;;;;;12.60;11.30;;;;;;;18.66;100.00;99868.41;1458273;89;22328;-79
2023/08/31 07:59:18;;;;;;;17.12;10.18;;;;;;;18.70;100.00;99870.13;1454580;89;21265;-78
2023/08/31 08:01:45;;;;;;;14.15;11.43;;;;;;;18.71;100.00;99868.59;1470216;89;22410;-79
2023/08/31 08:04:11;;;;;;;11.93;10.20;;;;;;;18.77;100.00;99870.97;1469471;89;21530;-79
2023/08/31 08:06:38;;;;;;;15.85;11.75;;;;;;;18.83;100.00;99875.46;1461884;89;21353;-78
2023/08/31 08:09:04;;;;;;;13.13;11.78;;;;;;;18.86;100.00;99881.73;1462746;89;21449;-77
2023/08/31 08:11:31;;;;;;;13.98;12.50;;;;;;;18.86;100.00;99880.39;1472172;87;21441;-75
2023/08/31 08:13:57;;;;;;;19.25;12.80;;;;;;;18.86;100.00;99887.09;1481411;87;22432;-78
2023/08/31 08:16:24;;;;;;;12.18;10.95;;;;;;;18.82;100.00;99889.91;1467587;89;21457;-79
2023/08/31 08:18:53;;;;;;;15.08;10.88;;;;;;;18.83;100.00;99898.25;1437569;89;21552;-79
2023/08/31 08:21:19;;;;;;;11.95;10.75;;;;;;;18.91;100.00;99893.17;1465091;89;21360;-77
2023/08/31 08:23:45;;;;;;;11.83;10.72;;;;;;;18.99;100.00;99894.26;1462402;89;21508;-78
2023/08/31 08:26:11;;;;;;;13.48;11.95;;;;;;;19.03;100.00;99893.30;1457856;89;22934;-78
2023/08/31 08:28:38;;;;;;;16.77;11.73;;;;;;;19.10;100.00;99892.72;1463097;89;21980;-78
2023/08/31 08:31:04;;;;;;;15.45;11.40;;;;;;;19.24;100.00;99893.46;1437829;89;21575;-79
2023/08/31 08:33:31;;;;;;;12.28;11.03;;;;;;;19.39;100.00;99892.13;1461051;89;21353;-79
2023/08/31 08:35:58;;;;;;;15.15;10.45;;;;;;;19.63;100.00;99891.00;1465726;89;21504;-79
2023/08/31 08:38:26;;;;;;;12.37;11.08;;;;;;;19.63;100.00;99886.97;1464956;89;21405;-78
2023/08/31 08:40:52;;;;;;;15.18;11.88;;;;;;;19.67;100.00;99893.56;1464866;89;21367;-78
2023/08/31 08:43:25;;;;;;;20.08;12.07;;;;;;;19.67;100.00;99902.95;1473833;87;21404;-79
2023/08/31 08:45:54;;;;;;;12.25;10.78;;;;;;;19.61;100.00;99902.47;1465639;89;21411;-78
2023/08/31 08:48:21;;;;;;;13.72;11.38;;;;;;;19.60;100.00;99899.49;1460566;89;22233;-78
2023/08/31 08:50:54;;;;;;;11.78;10.58;;;;;;;19.60;100.00;99899.49;1456636;89;21522;-79
2023/08/31 08:53:27;;;;;;;11.40;10.20;;;;;;;19.76;100.00;99917.73;1459301;89;21508;-79
2023/08/31 08:55:53;;;;;;;10.05;8.40;;;;;;;19.76;100.00;99917.73;1457571;87;21353;-79
2023/08/31 08:58:19;;;;;;;12.18;10.65;;;;;;;19.84;100.00;99915.30;1441708;89;21526;-78
2023/08/31 09:00:47;;;;;;;11.75;10.65;;;;;;;19.95;100.00;99916.45;1462869;89;21404;-80
2023/08/31 09:03:26;;;;;;;12.40;8.98;;;;;;;19.99;100.00;99915.77;1464654;89;21404;-78
2023/08/31 09:05:52;;;;;;;14.03;9.53;;;;;;;19.99;100.00;99918.45;1468085;89;21422;-78
2023/08/31 09:08:27;;;;;;;10.58;9.05;;;;;;;20.05;100.00;99924.80;1462867;89;21442;-79
2023/08/31 09:10:57;;;;;;;11.20;9.20;;;;;;;20.08;100.00;99923.02;1466752;89;21538;-79
2023/08/31 09:13:29;;;;;;;20.43;11.73;;;;;;;20.10;100.00;99930.34;1456401;89;21360;-77
2023/08/31 09:15:57;;;;;;;12.80;9.10;;;;;;;20.12;100.00;99930.95;1466226;89;21574;-78
2023/08/31 09:18:29;;;;;;;12.95;9.80;;;;;;;20.17;100.00;99924.89;1458389;89;21294;-79
2023/08/31 09:21:04;;;;;;;16.17;8.80;;;;;;;20.21;100.00;99922.89;1457714;89;21382;-79
2023/08/31 09:23:30;;;;;;;11.30;7.75;;;;;;;20.27;100.00;99927.38;1473651;89;21404;-79
2023/08/31 09:25:57;;;;;;;10.23;7.95;;;;;;;20.37;100.00;99935.43;1463897;89;21627;-80
2023/08/31 09:28:26;;;;;;;9.08;7.85;;;;;;;20.36;100.00;99933.80;1460193;89;21434;-80
2023/08/31 09:30:55;;;;;;;9.30;6.92;;;;;;;20.36;100.00;99934.61;1454221;89;21352;-79
2023/08/31 09:33:21;;;;;;;10.40;7.72;;;;;;;20.39;100.00;99937.38;1461966;89;21478;-78
2023/08/31 09:36:01;;;;;;;8.03;7.22;;;;;;;20.47;100.00;99941.94;1467864;89;21440;-79
2023/08/31 09:38:27;;;;;;;10.82;7.50;;;;;;;20.48;100.00;99934.69;1461919;89;21374;-78
2023/08/31 09:41:08;;;;;;;11.30;6.25;;;;;;;20.51;100.00;99931.55;1464317;89;21497;-76
2023/08/31 09:43:34;;;;;;;8.35;5.78;;;;;;;20.51;100.00;99939.11;1465158;89;22843;-79
2023/08/31 09:46:04;;;;;;;7.45;6.55;;;;;;;20.50;100.00;99933.95;1458327;89;21523;-78
2023/08/31 09:48:31;;;;;;;7.17;6.47;;;;;;;20.49;100.00;99939.03;1462686;89;22318;-79
2023/08/31 09:50:58;;;;;;;7.90;6.37;;;;;;;20.50;100.00;99943.36;1459210;89;21345;-78
2023/08/31 09:53:24;;;;;;;8.08;7.28;;;;;;;20.54;100.00;99948.60;1461267;89;22287;-76
2023/08/31 09:55:52;;;;;;;7.58;5.65;;;;;;;20.61;100.00;99950.70;1460018;89;21478;-76
2023/08/31 09:58:21;;;;;;;7.15;6.25;;;;;;;20.62;100.00;99950.17;1462175;89;21361;-78
2023/08/31 10:00:50;;;;;;;8.35;6.15;;;;;;;20.70;100.00;99959.28;1461230;89;21353;-79
2023/08/31 10:03:16;;;;;;;8.23;6.50;;;;;;;20.77;100.00;99959.20;1467340;89;21522;-78
2023/08/31 10:05:49;;;;;;;6.50;5.90;;;;;;;20.91;100.00;99962.02;1459709;89;21323;-76
2023/08/31 10:08:17;;;;;;;8.60;5.50;;;;;;;21.08;100.00;99961.69;1462876;89;21382;-79
2023/08/31 10:10:44;;;;;;;6.40;5.80;;;;;;;21.27;100.00;99964.34;1444015;89;21383;-78
2023/08/31 10:13:12;;;;;;;7.53;5.83;;;;;;;21.43;100.00;99959.66;1464302;89;22217;-78
2023/08/31 10:15:39;;;;;;;9.18;6.00;;;;;;;21.62;100.00;99960.42;1368867;91;21457;-77
2023/08/31 10:18:07;;;;;;;8.13;6.85;;;;;;;21.76;100.00;99962.37;1469334;89;22248;-78
2023/08/31 10:20:34;;;;;;;7.40;5.97;;;;;;;21.76;100.00;99961.84;1457223;89;21855;-78
2023/08/31 10:23:06;;;;;;;7.20;5.78;;;;;;;21.71;100.00;99962.25;1460448;89;22387;-78
2023/08/31 10:25:56;;;;;;;8.35;7.28;;;;;;;21.72;100.00;99961.19;1442187;89;21610;-79
2023/08/31 10:28:24;;;;;;;;;;;;;;;21.71;100.00;99961.72;1459065;87;23072;-79
2023/08/31 10:31:18;;;;;;;8.48;6.08;;;;;;;21.70;100.00;99955.23;1463435;89;20315;-78
2023/08/31 10:33:46;;;;;;;7.00;6.35;;;;;;;21.71;100.00;99952.29;1467291;89;21389;-77
2023/08/31 10:36:19;;;;;;;6.00;5.47;;;;;;;21.79;100.00;99959.22;1463669;89;21456;-77
2023/08/31 10:39:02;;;;;;;6.58;5.67;;;;;;;21.77;100.00;99959.97;1463697;89;21330;-77
2023/08/31 10:41:35;;;;;;;6.55;5.95;;;;;;;21.76;100.00;99960.50;1460078;89;21507;-77
2023/08/31 10:44:02;;;;;;;7.10;6.42;;;;;;;21.78;100.00;99964.30;1459329;89;21419;-77
2023/08/31 10:46:38;;;;;;;6.15;5.65;;;;;;;21.81;100.00;99965.20;1460229;89;21582;-78
2023/08/31 10:49:14;;;;;;;7.08;5.55;;;;;;;21.83;100.00;99960.38;1460573;89;21576;-78
2023/08/31 10:51:50;;;;;;;5.20;4.62;;;;;;;21.79;100.00;99965.42;1462293;89;21463;-76
2023/08/31 10:54:26;;;;;;;5.22;4.75;;;;;;;21.80;100.00;99966.23;1462394;89;21249;-78
2023/08/31 10:57:08;;;;;;;8.40;4.60;;;;;;;21.91;100.00;99964.61;1468596;89;21523;-77
2023/08/31 10:59:52;;;;;;;5.85;5.25;;;;;;;21.97;100.00;99968.53;1467796;89;21367;-77
2023/08/31 11:02:43;;;;;;;5.20;4.70;;;;;;;22.03;100.00;99967.59;1464804;89;21479;-77
2023/08/31 11:05:18;;;;;;;5.12;4.62;;;;;;;22.05;100.00;99965.50;1469241;89;21324;-78
2023/08/31 11:07:50;;;;;;;5.00;4.50;;;;;;;22.03;100.00;99964.91;1459996;89;21323;-77
2023/08/31 11:10:23;;;;;;;5.45;4.17;;;;;;;22.00;100.00;99967.25;1461972;89;21354;-77
2023/08/31 11:12:52;;;;;;;4.80;4.40;;;;;;;21.96;100.00;99973.64;1469357;89;21418;-78
2023/08/31 11:15:22;;;;;;;5.12;4.60;;;;;;;21.97;100.00;99975.27;1457702;89;21367;-78
2023/08/31 11:17:51;;;;;;;5.60;4.97;;;;;;;21.98;100.00;99976.93;1467036;89;21323;-77
2023/08/31 11:20:20;;;;;;;4.80;4.33;;;;;;;21.98;100.00;99976.93;1453470;89;21453;-77
2023/08/31 11:22:49;;;;;;;6.62;3.65;;;;;;;22.03;100.00;99979.72;1465718;89;21419;-78
2023/08/31 11:25:17;;;;;;;4.37;3.35;;;;;;;22.03;100.00;99979.72;1463057;89;21545;-78
2023/08/31 11:27:57;;;;;;;4.45;3.72;;;;;;;22.12;100.00;99979.38;1454296;89;21436;-78
2023/08/31 11:30:27;;;;;;;16.45;3.65;;;;;;;22.20;100.00;99983.10;1468039;89;21544;-78